createdAt,value
2023-04-29T00:02:18.237Z,13.68
2023-04-29T00:07:22.464Z,13.68
2023-04-29T00:12:28.254Z,13.71
2023-04-29T00:17:34.572Z,13.71
2023-04-29T00:22:37.740Z,13.70
2023-04-29T00:27:42.606Z,13.73
2023-04-29T00:32:46.799Z,13.75
2023-04-29T00:37:50.536Z,13.73
2023-04-29T00:42:55.066Z,13.75
2023-04-29T00:47:58.633Z,13.73
2023-04-29T00:53:02.342Z,13.76
2023-04-29T00:58:07.572Z,13.74
2023-04-29T01:03:11.998Z,13.79
2023-04-29T01:08:30.673Z,13.86
2023-04-29T01:13:44.541Z,13.85
2023-04-29T01:24:24.631Z,13.77
2023-04-29T01:29:35.219Z,13.80
2023-04-29T01:34:47.517Z,13.81
2023-04-29T01:40:01.953Z,13.81
2023-04-29T01:45:09.796Z,13.85
2023-04-29T01:50:13.050Z,13.83
2023-04-29T01:55:17.828Z,13.79
2023-04-29T02:00:22.677Z,13.83
2023-04-29T02:05:26.992Z,13.83
2023-04-29T02:10:31.579Z,13.85
2023-04-29T02:15:37.636Z,13.89
2023-04-29T02:20:41.141Z,13.89
2023-04-29T02:25:45.731Z,13.93
2023-04-29T02:30:49.013Z,13.93
2023-04-29T02:35:52.290Z,13.92
2023-04-29T02:40:57.335Z,13.90
2023-04-29T02:46:00.778Z,13.91
2023-04-29T02:51:04.417Z,13.89
2023-04-29T02:56:09.230Z,13.89
2023-04-29T03:01:12.612Z,13.86
2023-04-29T03:06:16.097Z,13.85
2023-04-29T03:11:21.015Z,13.87
2023-04-29T03:16:24.611Z,13.86
2023-04-29T03:21:28.108Z,13.82
2023-04-29T03:26:32.792Z,13.80
2023-04-29T03:31:36.416Z,13.81
2023-04-29T03:36:39.608Z,13.78
2023-04-29T03:41:44.768Z,13.79
2023-04-29T03:46:47.972Z,13.78
2023-04-29T03:51:51.628Z,13.79
2023-04-29T03:56:56.552Z,13.80
2023-04-29T04:01:59.769Z,13.81
2023-04-29T04:07:04.049Z,13.81
2023-04-29T04:12:09.266Z,13.84
2023-04-29T04:17:12.495Z,13.85
2023-04-29T04:22:17.391Z,13.88
2023-04-29T04:27:22.168Z,13.92
2023-04-29T04:32:25.380Z,13.95
2023-04-29T04:37:28.771Z,13.97
2023-04-29T04:42:33.250Z,13.99
2023-04-29T04:47:36.569Z,14.01
2023-04-29T04:52:39.833Z,14.04
2023-04-29T04:57:44.820Z,14.09
2023-04-29T05:02:48.237Z,14.11
2023-04-29T05:07:51.616Z,14.10
2023-04-29T05:12:56.131Z,14.11
2023-04-29T05:17:59.413Z,14.15
2023-04-29T05:23:02.872Z,14.23
2023-04-29T05:28:09.060Z,14.24
2023-04-29T05:33:12.577Z,14.34
2023-04-29T05:38:15.882Z,14.44
2023-04-29T05:43:20.498Z,14.52
2023-04-29T05:48:25.106Z,14.61
2023-04-29T05:53:28.483Z,14.71
2023-04-29T05:58:38.471Z,14.79
2023-04-29T06:03:43.209Z,14.85
2023-04-29T06:08:46.862Z,14.92
2023-04-29T06:13:51.774Z,14.92
2023-04-29T06:18:56.210Z,14.97
2023-04-29T06:24:02.549Z,15.04
2023-04-29T06:29:07.153Z,15.10
2023-04-29T06:34:10.855Z,15.14
2023-04-29T06:39:14.717Z,15.13
2023-04-29T06:44:20.257Z,15.07
2023-04-29T06:49:23.871Z,15.08
2023-04-29T06:54:28.839Z,15.12
2023-04-29T06:59:33.807Z,15.12
2023-04-29T07:04:37.760Z,15.08
2023-04-29T07:09:41.144Z,15.10
2023-04-29T07:14:45.904Z,15.10
2023-04-29T07:19:49.033Z,15.19
2023-04-29T07:24:55.220Z,15.28
2023-04-29T07:30:01.359Z,15.34
2023-04-29T07:35:06.120Z,15.25
2023-04-29T07:40:10.342Z,15.19
2023-04-29T07:45:15.251Z,15.20
2023-04-29T07:50:18.465Z,15.27
2023-04-29T07:55:21.997Z,15.39
2023-04-29T08:00:41.742Z,15.50
2023-04-29T08:05:45.293Z,15.46
2023-04-29T08:10:48.527Z,15.48
2023-04-29T08:15:53.833Z,15.53
2023-04-29T08:20:57.290Z,15.45
2023-04-29T08:26:00.523Z,15.38
2023-04-29T08:31:07.204Z,15.40
2023-04-29T08:36:10.736Z,15.63
2023-04-29T08:41:25.545Z,15.73
2023-04-29T08:46:30.683Z,15.87
2023-04-29T08:51:34.789Z,15.77
2023-04-29T08:56:50.676Z,15.62
2023-04-29T09:01:55.683Z,15.55
2023-04-29T09:06:59.906Z,15.52
2023-04-29T09:12:03.171Z,15.55
2023-04-29T09:17:46.027Z,15.61
2023-04-29T09:22:50.195Z,15.55
2023-04-29T09:27:53.674Z,15.57
2023-04-29T09:33:31.602Z,15.58
2023-04-29T09:38:35.139Z,15.60
2023-04-29T09:43:38.906Z,15.93
2023-04-29T09:48:43.580Z,15.88
2023-04-29T09:53:46.990Z,15.83
2023-04-29T09:58:50.202Z,15.74
2023-04-29T10:03:56.554Z,15.67
2023-04-29T10:09:00.881Z,15.55
2023-04-29T10:14:07.146Z,15.45
2023-04-29T10:19:14.008Z,15.33
2023-04-29T10:24:19.319Z,15.33
2023-04-29T10:29:23.796Z,15.55
2023-04-29T10:34:29.976Z,15.42
2023-04-29T10:39:47.557Z,15.35
2023-04-29T10:45:19.828Z,15.25
2023-04-29T10:50:24.653Z,15.13
2023-04-29T10:55:27.896Z,15.00
2023-04-29T11:00:32.922Z,14.94
2023-04-29T11:05:38.780Z,14.85
2023-04-29T11:10:43.097Z,14.84
2023-04-29T11:15:46.701Z,14.83
2023-04-29T11:21:17.238Z,14.86
2023-04-29T11:26:21.994Z,15.06
2023-04-29T11:31:29.561Z,15.21
2023-04-29T11:36:35.168Z,15.21
2023-04-29T11:41:39.811Z,15.14
2023-04-29T11:46:43.373Z,15.10
2023-04-29T11:51:48.298Z,15.00
2023-04-29T11:56:51.500Z,15.03
2023-04-29T12:01:54.772Z,15.05
2023-04-29T12:07:23.677Z,15.01
2023-04-29T12:12:31.751Z,15.04
2023-04-29T12:17:36.593Z,15.21
2023-04-29T12:22:47.013Z,15.40
2023-04-29T12:27:50.177Z,15.60
2023-04-29T12:32:53.700Z,15.90
2023-04-29T12:38:00.834Z,16.23
2023-04-29T12:43:09.334Z,16.51
2023-04-29T12:48:22.077Z,16.61
2023-04-29T12:53:32.604Z,16.82
2023-04-29T12:58:36.051Z,16.97
2023-04-29T13:03:40.213Z,17.23
2023-04-29T13:08:44.984Z,17.19
2023-04-29T13:13:48.109Z,17.09
2023-04-29T13:19:05.217Z,16.92
2023-04-29T13:24:20.273Z,16.80
2023-04-29T13:29:24.167Z,16.79
2023-04-29T13:34:27.434Z,16.76
2023-04-29T13:39:32.202Z,16.63
2023-04-29T13:44:51.113Z,16.63
2023-04-29T14:00:37.413Z,16.77
2023-04-29T14:05:39.153Z,16.88
2023-04-29T14:10:43.929Z,17.05
2023-04-29T14:16:03.729Z,17.16
2023-04-29T14:21:07.216Z,17.20
2023-04-29T14:26:27.326Z,17.28
2023-04-29T14:31:35.463Z,17.30
2023-04-29T14:36:38.819Z,17.28
2023-04-29T14:41:43.445Z,17.20
2023-04-29T14:46:46.729Z,17.25
2023-04-29T14:51:50.218Z,17.19
2023-04-29T14:56:54.690Z,17.13
2023-04-29T15:01:59.727Z,17.08
2023-04-29T15:07:03.577Z,16.98
2023-04-29T15:12:08.444Z,16.90
2023-04-29T15:17:11.682Z,16.85
2023-04-29T15:22:14.829Z,16.86
2023-04-29T15:27:20.277Z,16.84
2023-04-29T15:32:24.708Z,16.74
2023-04-29T15:37:29.238Z,16.72
2023-04-29T15:42:34.126Z,16.76
2023-04-29T15:47:37.285Z,16.80
2023-04-29T15:52:41.842Z,16.81
2023-04-29T15:57:46.498Z,16.86
2023-04-29T16:02:49.879Z,16.84
2023-04-29T16:07:54.565Z,16.79
2023-04-29T16:12:59.096Z,16.81
2023-04-29T16:18:02.715Z,16.76
2023-04-29T16:23:06.578Z,16.66
2023-04-29T16:28:11.211Z,16.66
2023-04-29T16:33:16.422Z,16.58
2023-04-29T16:38:19.966Z,16.54
2023-04-29T16:43:24.530Z,16.49
2023-04-29T16:48:27.913Z,16.47
2023-04-29T16:53:31.454Z,16.40
2023-04-29T16:58:36.678Z,16.39
2023-04-29T17:03:40.734Z,16.33
2023-04-29T17:08:44.723Z,16.27
2023-04-29T17:13:50.649Z,16.21
2023-04-29T17:18:54.437Z,16.18
2023-04-29T17:23:58.931Z,16.13
2023-04-29T17:29:05.258Z,16.04
2023-04-29T17:34:18.461Z,15.97
2023-04-29T17:39:22.341Z,15.91
2023-04-29T17:44:28.200Z,15.84
2023-04-29T17:49:31.487Z,15.79
2023-04-29T17:54:35.022Z,15.72
2023-04-29T17:59:39.556Z,15.66
2023-04-29T18:04:43.178Z,15.58
2023-04-29T18:09:47.661Z,15.49
2023-04-29T18:14:53.025Z,15.41
2023-04-29T18:19:56.551Z,15.35
2023-04-29T18:25:00.370Z,15.30
2023-04-29T18:30:05.703Z,15.23
2023-04-29T18:35:10.743Z,15.16
2023-04-29T18:40:17.874Z,15.12
2023-04-29T18:45:23.573Z,15.05
2023-04-29T18:50:26.807Z,15.00
2023-04-29T18:55:33.584Z,14.93
2023-04-29T19:00:38.491Z,14.88
2023-04-29T19:05:42.107Z,14.85
2023-04-29T19:10:46.538Z,14.77
2023-04-29T19:15:53.637Z,14.73
2023-04-29T19:21:04.922Z,14.70
2023-04-29T19:26:09.669Z,14.68
2023-04-29T19:31:14.704Z,14.64
2023-04-29T19:36:18.145Z,14.61
2023-04-29T19:41:22.173Z,14.58
2023-04-29T19:46:26.726Z,14.55
2023-04-29T19:51:30.001Z,14.53
2023-04-29T19:56:34.004Z,14.50
2023-04-29T20:01:38.877Z,14.47
2023-04-29T20:06:42.229Z,14.46
2023-04-29T20:11:47.637Z,14.41
2023-04-29T20:16:53.336Z,14.38
2023-04-29T20:21:56.750Z,14.35
2023-04-29T20:27:00.182Z,14.33
2023-04-29T20:32:06.157Z,14.31
2023-04-29T20:37:09.784Z,14.28
2023-04-29T20:42:13.082Z,14.25
2023-04-29T20:47:17.688Z,14.21
2023-04-29T20:52:21.447Z,14.18
2023-04-29T20:57:25.979Z,14.14
2023-04-29T21:02:30.711Z,14.12
2023-04-29T21:07:34.050Z,14.09
2023-04-29T21:12:37.211Z,14.07
2023-04-29T21:17:41.878Z,14.05
2023-04-29T21:22:46.816Z,14.00
2023-04-29T21:27:50.149Z,13.97
2023-04-29T21:32:54.890Z,13.94
2023-04-29T21:37:58.715Z,13.90
2023-04-29T21:43:01.998Z,13.84
2023-04-29T21:48:14.624Z,13.79
2023-04-29T21:53:18.280Z,13.72
2023-04-29T21:58:21.399Z,13.67
2023-04-29T22:03:26.240Z,13.59
2023-04-29T22:08:29.650Z,13.47
2023-04-29T22:13:32.810Z,13.30
2023-04-29T22:18:37.706Z,13.14
2023-04-29T22:23:40.816Z,12.98
2023-04-29T22:28:44.064Z,12.82
2023-04-29T22:33:48.782Z,12.69
2023-04-29T22:38:52.080Z,12.54
2023-04-29T22:43:57.572Z,12.41
2023-04-29T22:49:02.334Z,12.31
2023-04-29T22:54:05.670Z,12.18
2023-04-29T22:59:08.825Z,12.08
2023-04-29T23:04:14.874Z,11.96
2023-04-29T23:09:18.209Z,11.84
2023-04-29T23:14:22.495Z,11.72
2023-04-29T23:19:27.248Z,11.61
2023-04-29T23:24:30.605Z,11.45
2023-04-29T23:29:35.172Z,11.30
2023-04-29T23:34:39.899Z,11.19
2023-04-29T23:39:43.102Z,11.04
2023-04-29T23:44:46.509Z,10.93
2023-04-29T23:49:51.102Z,10.81
2023-04-29T23:54:54.359Z,10.67
2023-04-29T23:59:57.592Z,10.57
